createdAt,value
2019-02-22T00:01:21.328Z,103064.71
2019-02-22T00:03:50.510Z,103064.71
2019-02-22T00:06:19.694Z,103062.38
2019-02-22T00:08:48.911Z,103062.38
2019-02-22T00:11:18.098Z,103059.38
2019-02-22T00:13:47.297Z,103059.38
2019-02-22T00:16:16.508Z,103058.09
2019-02-22T00:18:45.696Z,103063.34
2019-02-22T00:21:14.875Z,103062.88
2019-02-22T00:23:44.101Z,103062.88
2019-02-22T00:26:13.286Z,103067.34
2019-02-22T00:28:42.477Z,103064.63
2019-02-22T00:31:11.666Z,103064.13
2019-02-22T00:33:40.855Z,103060.61
2019-02-22T00:36:10.067Z,103060.61
2019-02-22T00:38:39.258Z,103066.55
2019-02-22T00:41:08.469Z,103066.55
2019-02-22T00:43:37.693Z,103068.28
2019-02-22T00:46:06.853Z,103068.28
2019-02-22T00:48:36.063Z,103078.85
2019-02-22T00:51:05.254Z,103075.23
2019-02-22T00:53:34.446Z,103078.02
2019-02-22T00:56:03.672Z,103084.05
2019-02-22T00:58:32.870Z,103084.05
2019-02-22T01:01:02.055Z,103081.36
2019-02-22T01:03:31.262Z,103089.30
2019-02-22T01:06:00.451Z,103094.17
2019-02-22T01:08:29.663Z,103091.02
2019-02-22T01:10:58.897Z,103094.94
2019-02-22T01:13:28.111Z,103091.03
2019-02-22T01:15:57.307Z,103091.03
2019-02-22T01:18:26.518Z,103100.25
2019-02-22T01:20:55.729Z,103107.17
2019-02-22T01:23:24.942Z,103100.42
2019-02-22T01:25:54.126Z,103117.69
2019-02-22T01:28:23.322Z,103122.11
2019-02-22T01:30:52.537Z,103117.69
2019-02-22T01:33:21.789Z,103117.69
2019-02-22T01:35:50.979Z,103118.05
2019-02-22T01:38:20.225Z,103127.84
2019-02-22T01:40:49.434Z,103127.84
2019-02-22T01:43:18.624Z,103128.33
2019-02-22T01:45:47.926Z,103137.30
2019-02-22T01:48:17.116Z,103132.51
2019-02-22T01:50:46.329Z,103132.51
2019-02-22T01:53:15.549Z,103135.18
2019-02-22T01:55:44.754Z,103140.06
2019-02-22T01:58:14.014Z,103135.58
2019-02-22T02:00:43.233Z,103135.58
2019-02-22T02:03:12.442Z,103133.38
2019-02-22T02:05:41.633Z,103135.58
2019-02-22T02:08:10.842Z,103135.58
2019-02-22T02:10:40.039Z,103135.25
2019-02-22T02:13:09.234Z,103135.73
2019-02-22T02:15:38.446Z,103135.73
2019-02-22T02:18:07.633Z,103135.16
2019-02-22T02:20:36.906Z,103128.00
2019-02-22T02:23:06.138Z,103128.00
2019-02-22T02:25:35.325Z,103123.52
2019-02-22T02:28:04.508Z,103123.52
2019-02-22T02:30:33.735Z,103122.34
2019-02-22T02:33:02.942Z,103129.34
2019-02-22T02:35:32.202Z,103131.93
2019-02-22T02:38:02.381Z,103144.08
2019-02-22T02:40:31.572Z,103144.08
2019-02-22T02:43:00.776Z,103152.88
2019-02-22T02:45:29.974Z,103153.41
2019-02-22T02:47:59.237Z,103150.44
2019-02-22T02:50:28.431Z,103150.44
2019-02-22T02:52:57.644Z,103158.71
2019-02-22T02:55:29.525Z,103158.71
2019-02-22T02:57:58.745Z,103155.72
2019-02-22T03:00:28.009Z,103148.53
2019-02-22T03:02:57.245Z,103156.98
2019-02-22T03:05:43.422Z,103151.70
2019-02-22T03:08:12.816Z,103156.12
2019-02-22T03:10:41.992Z,103159.15
2019-02-22T03:13:11.216Z,103161.78
2019-02-22T03:15:40.540Z,103159.16
2019-02-22T03:18:09.712Z,103159.16
2019-02-22T03:20:38.976Z,103160.97
2019-02-22T03:23:08.156Z,103156.91
2019-02-22T03:25:37.355Z,103163.59
2019-02-22T03:28:06.569Z,103164.98
2019-02-22T03:30:35.946Z,103171.69
2019-02-22T03:33:05.138Z,103169.42
2019-02-22T03:35:34.356Z,103165.86
2019-02-22T03:38:05.858Z,103165.86
2019-02-22T03:40:34.478Z,103168.13
2019-02-22T03:43:03.668Z,103173.91
2019-02-22T03:45:33.054Z,103182.84
2019-02-22T03:48:02.249Z,103182.84
2019-02-22T03:50:31.442Z,103181.08
2019-02-22T03:53:17.307Z,103181.92
2019-02-22T03:55:46.584Z,103181.92
2019-02-22T03:58:16.145Z,103172.14
2019-02-22T04:00:45.474Z,103178.91
2019-02-22T04:03:14.736Z,103182.16
2019-02-22T04:05:43.959Z,103190.11
2019-02-22T04:08:13.413Z,103190.11
2019-02-22T04:10:42.611Z,103183.88
2019-02-22T04:13:11.788Z,103192.31
2019-02-22T04:15:41.008Z,103184.29
2019-02-22T04:18:10.213Z,103184.29
2019-02-22T04:20:39.459Z,103185.82
2019-02-22T04:23:08.641Z,103194.19
2019-02-22T04:25:38.029Z,103197.73
2019-02-22T04:28:07.210Z,103191.05
2019-02-22T04:30:38.019Z,103191.05
2019-02-22T04:33:07.370Z,103204.88
2019-02-22T04:35:36.567Z,103200.80
2019-02-22T04:38:05.756Z,103207.50
2019-02-22T04:40:34.953Z,103212.84
2019-02-22T04:43:04.345Z,103212.84
2019-02-22T04:45:33.531Z,103216.52
2019-02-22T04:48:02.723Z,103215.66
2019-02-22T04:50:31.944Z,103215.66
2019-02-22T04:53:01.118Z,103214.30
2019-02-22T04:55:30.370Z,103210.23
2019-02-22T04:57:59.574Z,103215.53
2019-02-22T05:00:28.797Z,103215.53
2019-02-22T05:02:58.007Z,103215.98
2019-02-22T05:05:27.219Z,103214.64
2019-02-22T05:07:56.441Z,103217.78
2019-02-22T05:10:25.625Z,103212.45
2019-02-22T05:12:54.812Z,103214.17
2019-02-22T05:15:24.028Z,103221.33
2019-02-22T05:17:53.272Z,103218.72
2019-02-22T05:20:22.462Z,103227.16
2019-02-22T05:23:03.010Z,103232.10
2019-02-22T05:25:22.905Z,103237.04
2019-02-22T05:27:52.106Z,103243.16
2019-02-22T05:30:21.322Z,103243.16
2019-02-22T05:32:50.554Z,103237.40
2019-02-22T05:35:19.776Z,103247.23
2019-02-22T05:37:49.325Z,103247.23
2019-02-22T05:40:18.536Z,103248.20
2019-02-22T05:42:47.984Z,103248.20
2019-02-22T05:45:17.236Z,103249.50
2019-02-22T05:47:46.420Z,103260.70
2019-02-22T05:50:15.617Z,103260.70
2019-02-22T05:52:44.829Z,103267.39
2019-02-22T05:55:14.129Z,103267.44
2019-02-22T05:57:43.372Z,103284.78
2019-02-22T06:00:12.716Z,103284.78
2019-02-22T06:02:41.929Z,103287.45
2019-02-22T06:05:11.299Z,103283.90
2019-02-22T06:07:40.554Z,103289.70
2019-02-22T06:10:10.891Z,103292.38
2019-02-22T06:12:40.148Z,103290.13
2019-02-22T06:15:09.510Z,103307.05
2019-02-22T06:17:38.857Z,103307.05
2019-02-22T06:20:13.266Z,103309.73
2019-02-22T06:22:42.523Z,103321.34
2019-02-22T06:25:11.808Z,103330.23
2019-02-22T06:27:41.083Z,103330.23
2019-02-22T06:30:11.180Z,103337.34
2019-02-22T06:32:42.244Z,103343.98
2019-02-22T06:35:11.403Z,103343.98
2019-02-22T06:37:40.658Z,103349.30
2019-02-22T06:40:10.373Z,103352.47
2019-02-22T06:42:45.943Z,103355.56
2019-02-22T06:45:10.661Z,103355.56
2019-02-22T06:47:40.017Z,103359.58
2019-02-22T06:50:09.441Z,103362.70
2019-02-22T06:52:38.732Z,103372.08
2019-02-22T06:55:08.042Z,103372.08
2019-02-22T06:57:37.285Z,103376.50
2019-02-22T07:00:11.973Z,103376.50
2019-02-22T07:02:41.205Z,103377.84
2019-02-22T07:05:10.509Z,103380.48
2019-02-22T07:07:39.779Z,103382.73
2019-02-22T07:10:10.575Z,103382.73
2019-02-22T07:12:56.263Z,103384.48
2019-02-22T07:15:18.067Z,103384.48
2019-02-22T07:17:47.360Z,103387.20
2019-02-22T07:20:16.634Z,103387.20
2019-02-22T07:22:46.201Z,103400.58
2019-02-22T07:25:15.444Z,103400.58
2019-02-22T07:27:44.756Z,103405.01
2019-02-22T07:30:14.047Z,103406.81
2019-02-22T07:32:43.418Z,103409.45
2019-02-22T07:35:14.327Z,103413.03
2019-02-22T07:37:43.799Z,103413.03
2019-02-22T07:40:13.355Z,103416.13
2019-02-22T07:42:42.737Z,103416.13
2019-02-22T07:45:12.343Z,103420.11
2019-02-22T07:47:41.576Z,103420.11
2019-02-22T07:50:11.185Z,103431.73
2019-02-22T07:52:40.437Z,103435.28
2019-02-22T07:55:10.763Z,103436.16
2019-02-22T07:57:40.410Z,103445.98
2019-02-22T08:00:12.602Z,103449.08
2019-02-22T08:02:41.848Z,103449.08
2019-02-22T08:05:11.164Z,103449.13
2019-02-22T08:07:40.447Z,103450.98
2019-02-22T08:10:09.722Z,103451.47
2019-02-22T08:12:38.981Z,103452.42
2019-02-22T08:15:10.273Z,103456.84
2019-02-22T08:17:39.526Z,103461.36
2019-02-22T08:20:09.628Z,103461.36
2019-02-22T08:22:38.922Z,103462.23
2019-02-22T08:25:08.315Z,103457.30
2019-02-22T08:27:40.120Z,103475.52
2019-02-22T08:30:10.749Z,103475.52
2019-02-22T08:32:40.182Z,103472.36
2019-02-22T08:35:09.509Z,103472.36
2019-02-22T08:37:38.690Z,103474.55
2019-02-22T08:40:10.189Z,103470.95
2019-02-22T08:42:39.469Z,103472.75
2019-02-22T08:45:10.179Z,103481.66
2019-02-22T08:47:39.389Z,103481.66
2019-02-22T08:50:09.172Z,103489.19
2019-02-22T08:52:38.411Z,103489.19
2019-02-22T08:55:07.825Z,103498.14
2019-02-22T08:57:37.112Z,103498.52
2019-02-22T09:00:09.675Z,103501.66
2019-02-22T09:02:38.863Z,103501.66
2019-02-22T09:05:09.165Z,103506.97
2019-02-22T09:07:38.394Z,103506.97
2019-02-22T09:10:10.710Z,103512.83
2019-02-22T09:12:39.963Z,103512.83
2019-02-22T09:15:10.396Z,103510.14
2019-02-22T09:17:39.634Z,103514.08
2019-02-22T09:20:12.664Z,103518.09
2019-02-22T09:22:41.827Z,103518.09
2019-02-22T09:25:11.217Z,103515.36
2019-02-22T09:27:40.494Z,103505.05
2019-02-22T09:30:11.679Z,103510.36
2019-02-22T09:32:40.934Z,103521.02
2019-02-22T09:35:11.354Z,103521.02
2019-02-22T09:37:40.582Z,103522.41
2019-02-22T09:40:14.814Z,103524.28
2019-02-22T09:42:44.165Z,103527.00
2019-02-22T09:45:13.634Z,103527.00
2019-02-22T09:47:42.876Z,103527.83
2019-02-22T09:50:16.298Z,103528.17
2019-02-22T09:52:45.535Z,103528.17
2019-02-22T09:55:14.887Z,103532.08
2019-02-22T09:57:44.141Z,103528.52
2019-02-22T10:00:16.382Z,103537.44
2019-02-22T10:02:45.646Z,103548.67
2019-02-22T10:05:15.043Z,103542.79
2019-02-22T10:07:44.308Z,103538.76
2019-02-22T10:10:13.546Z,103553.38
2019-02-22T10:12:43.008Z,103559.22
2019-02-22T10:15:12.318Z,103552.56
2019-02-22T10:17:41.546Z,103561.48
2019-02-22T10:20:11.073Z,103561.83
2019-02-22T10:22:40.340Z,103553.52
2019-02-22T10:25:09.729Z,103546.32
2019-02-22T10:27:39.311Z,103547.15
2019-02-22T10:30:27.950Z,103544.77
2019-02-22T10:32:57.342Z,103551.41
2019-02-22T10:35:26.578Z,103538.36
2019-02-22T10:37:55.854Z,103541.37
2019-02-22T10:40:25.117Z,103548.53
2019-02-22T10:42:54.356Z,103548.53
2019-02-22T10:45:23.698Z,103543.26
2019-02-22T10:47:52.953Z,103548.63
2019-02-22T10:50:22.185Z,103549.11
2019-02-22T10:53:01.755Z,103541.55
2019-02-22T10:55:22.736Z,103541.55
2019-02-22T10:57:52.050Z,103543.20
2019-02-22T11:00:21.391Z,103543.55
2019-02-22T11:02:50.660Z,103546.19
2019-02-22T11:05:19.907Z,103550.73
2019-02-22T11:07:49.134Z,103550.01
2019-02-22T11:10:18.498Z,103541.09
2019-02-22T11:12:48.052Z,103533.89
2019-02-22T11:15:17.294Z,103532.14
2019-02-22T11:17:46.583Z,103539.81
2019-02-22T11:20:15.872Z,103537.12
2019-02-22T11:22:45.136Z,103541.16
2019-02-22T11:25:15.820Z,103538.58
2019-02-22T11:27:45.172Z,103533.69
2019-02-22T11:30:15.454Z,103525.27
2019-02-22T11:32:44.746Z,103526.50
2019-02-22T11:35:14.010Z,103519.97
2019-02-22T11:37:43.319Z,103512.41
2019-02-22T11:40:12.689Z,103511.92
2019-02-22T11:42:42.009Z,103508.55
2019-02-22T11:45:11.406Z,103508.55
2019-02-22T11:47:40.659Z,103507.07
2019-02-22T11:50:11.357Z,103516.05
2019-02-22T11:52:40.675Z,103516.05
2019-02-22T11:55:10.942Z,103517.26
2019-02-22T11:57:40.665Z,103515.75
2019-02-22T12:00:16.786Z,103516.10
2019-02-22T12:02:47.299Z,103519.53
2019-02-22T12:05:16.658Z,103512.86
2019-02-22T12:07:45.984Z,103526.23
2019-02-22T12:10:15.243Z,103530.12
2019-02-22T12:12:44.582Z,103526.14
2019-02-22T12:15:14.599Z,103522.75
2019-02-22T12:17:43.874Z,103525.28
2019-02-22T12:20:13.295Z,103528.09
2019-02-22T12:22:42.625Z,103528.84
2019-02-22T12:25:13.047Z,103523.89
2019-02-22T12:27:42.334Z,103535.41
2019-02-22T12:30:13.724Z,103533.12
2019-02-22T12:32:43.015Z,103537.53
2019-02-22T12:35:12.461Z,103549.33
2019-02-22T12:37:41.884Z,103559.19
2019-02-22T12:40:11.855Z,103573.77
2019-02-22T12:42:41.118Z,103575.95
2019-02-22T12:45:11.945Z,103575.95
2019-02-22T12:47:41.310Z,103590.23
2019-02-22T12:50:11.885Z,103587.48
2019-02-22T12:52:41.111Z,103586.13
2019-02-22T12:55:11.280Z,103583.39
2019-02-22T12:57:40.485Z,103574.59
2019-02-22T13:00:20.171Z,103577.12
2019-02-22T13:02:49.485Z,103576.98
2019-02-22T13:05:21.491Z,103592.74
2019-02-22T13:07:52.695Z,103596.83
2019-02-22T13:10:21.699Z,103598.23
2019-02-22T13:12:51.032Z,103594.14
2019-02-22T13:15:20.321Z,103583.52
2019-02-22T13:17:49.585Z,103583.52
2019-02-22T13:20:18.899Z,103585.44
2019-02-22T13:22:48.207Z,103583.59
2019-02-22T13:25:17.428Z,103576.45
2019-02-22T13:27:46.740Z,103579.94
2019-02-22T13:30:16.376Z,103577.73
2019-02-22T13:32:45.685Z,103574.16
2019-02-22T13:35:14.934Z,103566.15
2019-02-22T13:37:44.218Z,103558.92
2019-02-22T13:40:15.277Z,103558.92
2019-02-22T13:42:44.588Z,103566.61
2019-02-22T13:45:25.502Z,103571.08
2019-02-22T13:47:45.686Z,103575.58
2019-02-22T13:50:19.040Z,103575.58
2019-02-22T13:52:48.365Z,103576.45
2019-02-22T13:55:17.599Z,103567.53
2019-02-22T13:57:47.113Z,103566.65
2019-02-22T14:00:18.207Z,103570.68
2019-02-22T14:02:47.484Z,103563.58
2019-02-22T14:05:16.992Z,103553.73
2019-02-22T14:07:51.303Z,103560.88
2019-02-22T14:10:20.900Z,103566.73
2019-02-22T14:12:50.318Z,103572.02
2019-02-22T14:15:19.617Z,103571.63
2019-02-22T14:17:48.917Z,103563.02
2019-02-22T14:20:18.245Z,103563.02
2019-02-22T14:22:48.962Z,103567.44
2019-02-22T14:25:18.205Z,103566.55
2019-02-22T14:27:47.478Z,103571.16
2019-02-22T14:30:17.795Z,103569.23
2019-02-22T14:32:47.153Z,103568.70
2019-02-22T14:35:16.398Z,103578.56
2019-02-22T14:37:45.732Z,103568.31
2019-02-22T14:40:15.122Z,103579.95
2019-02-22T14:42:44.728Z,103572.36
2019-02-22T14:45:14.048Z,103567.44
2019-02-22T14:47:43.384Z,103560.59
2019-02-22T14:50:19.346Z,103566.89
2019-02-22T14:52:48.713Z,103574.45
2019-02-22T14:55:17.975Z,103580.75
2019-02-22T14:57:47.261Z,103581.16
2019-02-22T15:00:20.204Z,103566.51
2019-02-22T15:02:49.597Z,103566.51
2019-02-22T15:05:18.876Z,103561.67
2019-02-22T15:07:48.247Z,103569.28
2019-02-22T15:10:18.785Z,103575.53
2019-02-22T15:12:48.226Z,103573.23
2019-02-22T15:15:21.187Z,103561.67
2019-02-22T15:17:54.750Z,103563.46
2019-02-22T15:20:24.002Z,103567.58
2019-02-22T15:22:53.314Z,103567.58
2019-02-22T15:25:22.592Z,103573.84
2019-02-22T15:27:51.859Z,103576.91
2019-02-22T15:30:21.186Z,103581.30
2019-02-22T15:32:50.468Z,103580.80
2019-02-22T15:35:19.816Z,103577.28
2019-02-22T15:37:49.991Z,103582.25
2019-02-22T15:40:19.425Z,103589.37
2019-02-22T15:42:48.655Z,103594.38
2019-02-22T15:45:19.160Z,103604.64
2019-02-22T15:47:49.104Z,103610.42
2019-02-22T15:50:19.243Z,103602.83
2019-02-22T15:52:49.755Z,103600.16
2019-02-22T15:55:18.997Z,103601.95
2019-02-22T15:57:48.334Z,103621.66
2019-02-22T16:00:26.725Z,103621.66
2019-02-22T16:02:55.996Z,103618.97
2019-02-22T16:05:26.991Z,103619.45
2019-02-22T16:08:14.252Z,103614.45
2019-02-22T16:10:43.495Z,103614.52
2019-02-22T16:13:12.825Z,103606.00
2019-02-22T16:15:42.246Z,103608.69
2019-02-22T16:18:11.436Z,103601.11
2019-02-22T16:20:40.684Z,103598.90
2019-02-22T16:23:09.980Z,103591.48
2019-02-22T16:25:39.234Z,103603.48
2019-02-22T16:28:08.492Z,103611.67
2019-02-22T16:30:45.403Z,103605.43
2019-02-22T16:33:14.657Z,103617.14
2019-02-22T16:35:43.918Z,103623.08
2019-02-22T16:38:13.276Z,103627.61
2019-02-22T16:40:42.541Z,103620.93
2019-02-22T16:43:11.920Z,103625.46
2019-02-22T16:45:41.258Z,103625.46
2019-02-22T16:48:10.582Z,103628.64
2019-02-22T16:50:39.892Z,103626.41
2019-02-22T16:53:09.459Z,103607.69
2019-02-22T16:55:38.839Z,103615.84
2019-02-22T16:58:08.101Z,103609.64
2019-02-22T17:00:37.380Z,103615.84
2019-02-22T17:03:06.652Z,103615.84
2019-02-22T17:05:36.148Z,103615.91
2019-02-22T17:08:05.483Z,103623.57
2019-02-22T17:10:34.793Z,103631.23
2019-02-22T17:13:04.312Z,103634.83
2019-02-22T17:15:33.546Z,103640.78
2019-02-22T17:18:02.800Z,103640.78
2019-02-22T17:20:32.059Z,103653.72
2019-02-22T17:23:01.320Z,103662.67
2019-02-22T17:25:30.549Z,103660.84
2019-02-22T17:28:00.389Z,103659.41
2019-02-22T17:30:29.746Z,103654.67
2019-02-22T17:32:59.034Z,103654.62
2019-02-22T17:35:28.322Z,103648.83
2019-02-22T17:37:57.624Z,103648.83
2019-02-22T17:40:33.313Z,103643.02
2019-02-22T17:43:02.590Z,103640.38
2019-02-22T17:45:31.882Z,103643.02
2019-02-22T17:48:01.252Z,103639.43
2019-02-22T17:50:30.543Z,103633.13
2019-02-22T17:52:59.834Z,103633.13
2019-02-22T17:55:29.074Z,103647.03
2019-02-22T17:57:58.439Z,103654.14
2019-02-22T18:00:27.764Z,103657.28
2019-02-22T18:02:57.009Z,103651.44
2019-02-22T18:05:26.300Z,103645.58
2019-02-22T18:07:55.597Z,103650.50
2019-02-22T18:10:24.827Z,103651.37
2019-02-22T18:12:54.166Z,103650.47
2019-02-22T18:15:23.425Z,103642.45
2019-02-22T18:17:52.664Z,103642.45
2019-02-22T18:20:22.081Z,103648.75
2019-02-22T18:22:51.356Z,103650.95
2019-02-22T18:25:20.592Z,103655.85
2019-02-22T18:27:49.824Z,103659.83
2019-02-22T18:30:21.669Z,103656.67
2019-02-22T18:32:50.967Z,103658.94
2019-02-22T18:35:20.268Z,103659.03
2019-02-22T18:37:49.567Z,103659.03
2019-02-22T18:40:20.650Z,103667.92
2019-02-22T18:42:49.981Z,103665.28
2019-02-22T18:45:19.290Z,103659.52
2019-02-22T18:47:48.548Z,103660.45
2019-02-22T18:50:17.811Z,103670.73
2019-02-22T18:52:47.221Z,103670.73
2019-02-22T18:55:16.478Z,103685.40
2019-02-22T18:57:45.757Z,103679.64
2019-02-22T19:00:19.740Z,103679.64
2019-02-22T19:02:49.208Z,103679.55
2019-02-22T19:05:18.633Z,103685.02
2019-02-22T19:07:48.108Z,103675.75
2019-02-22T19:10:18.639Z,103675.75
2019-02-22T19:12:47.916Z,103686.42
2019-02-22T19:15:17.288Z,103679.25
2019-02-22T19:17:46.564Z,103679.25
2019-02-22T19:20:20.662Z,103682.41
2019-02-22T19:22:50.033Z,103685.02
2019-02-22T19:25:19.280Z,103689.01
2019-02-22T19:27:48.575Z,103678.76
2019-02-22T19:30:19.270Z,103686.33
2019-02-22T19:32:48.814Z,103687.69
2019-02-22T19:35:18.148Z,103687.69
2019-02-22T19:37:47.436Z,103680.53
2019-02-22T19:40:19.713Z,103685.48
2019-02-22T19:42:48.971Z,103685.95
2019-02-22T19:45:18.247Z,103682.86
2019-02-22T19:47:47.514Z,103681.99
2019-02-22T19:50:16.744Z,103683.28
2019-02-22T19:52:45.994Z,103689.17
2019-02-22T19:55:19.388Z,103691.80
2019-02-22T19:57:48.667Z,103685.96
2019-02-22T20:00:18.871Z,103686.41
2019-02-22T20:02:48.542Z,103688.25
2019-02-22T20:05:17.881Z,103645.07
2019-02-22T20:07:47.119Z,103688.23
2019-02-22T20:10:20.664Z,103690.05
2019-02-22T20:12:49.923Z,103687.84
2019-02-22T20:15:19.329Z,103687.84
2019-02-22T20:17:54.619Z,103687.84
2019-02-22T20:20:20.353Z,103687.39
2019-02-22T20:22:50.426Z,103686.03
2019-02-22T20:25:19.666Z,103674.41
2019-02-22T20:27:48.913Z,103668.21
2019-02-22T20:30:19.222Z,103672.23
2019-02-22T20:32:48.469Z,103665.12
2019-02-22T20:35:27.547Z,103666.06
2019-02-22T20:37:56.867Z,103666.48
2019-02-22T20:40:26.204Z,103666.92
2019-02-22T20:42:55.518Z,103658.02
2019-02-22T20:45:24.754Z,103665.19
2019-02-22T20:48:04.307Z,103665.19
2019-02-22T20:50:25.030Z,103667.46
2019-02-22T20:52:54.347Z,103669.75
2019-02-22T20:55:23.589Z,103655.06
2019-02-22T20:57:52.945Z,103670.70
2019-02-22T21:00:24.160Z,103675.59
2019-02-22T21:02:53.509Z,103671.55
2019-02-22T21:05:22.826Z,103669.77
2019-02-22T21:07:52.073Z,103665.34
2019-02-22T21:10:22.574Z,103674.73
2019-02-22T21:12:51.850Z,103672.98
2019-02-22T21:15:21.118Z,103674.39
2019-02-22T21:17:50.377Z,103671.25
2019-02-22T21:20:22.930Z,103673.52
2019-02-22T21:22:52.206Z,103680.27
2019-02-22T21:25:21.489Z,103683.36
2019-02-22T21:27:50.757Z,103687.86
2019-02-22T21:30:21.087Z,103688.78
2019-02-22T21:32:50.393Z,103690.59
2019-02-22T21:35:19.661Z,103688.36
2019-02-22T21:37:48.958Z,103695.06
2019-02-22T21:40:18.237Z,103691.92
2019-02-22T21:42:47.502Z,103694.59
2019-02-22T21:45:17.317Z,103687.11
2019-02-22T21:47:54.626Z,103700.89
2019-02-22T21:50:17.787Z,103684.84
2019-02-22T21:52:47.139Z,103694.66
2019-02-22T21:55:16.737Z,103690.22
2019-02-22T21:57:46.006Z,103687.16
2019-02-22T22:00:23.605Z,103683.13
2019-02-22T22:02:52.883Z,103681.80
2019-02-22T22:05:22.135Z,103687.61
2019-02-22T22:07:51.412Z,103691.20
2019-02-22T22:10:20.683Z,103691.20
2019-02-22T22:12:49.988Z,103687.15
2019-02-22T22:15:19.290Z,103687.15
2019-02-22T22:17:48.511Z,103684.47
2019-02-22T22:20:17.759Z,103684.05
2019-02-22T22:22:47.098Z,103683.17
2019-02-22T22:25:16.917Z,103681.86
2019-02-22T22:27:46.270Z,103681.86
2019-02-22T22:30:16.204Z,103675.62
2019-02-22T22:32:45.539Z,103675.62
2019-02-22T22:35:16.372Z,103675.16
2019-02-22T22:37:45.677Z,103676.06
2019-02-22T22:40:14.910Z,103672.94
2019-02-22T22:42:44.236Z,103672.94
2019-02-22T22:45:14.646Z,103673.39
2019-02-22T22:47:44.067Z,103668.94
2019-02-22T22:50:17.264Z,103675.64
2019-02-22T22:52:46.599Z,103678.80
2019-02-22T22:55:15.852Z,103678.80
2019-02-22T22:57:45.803Z,103674.77
2019-02-22T23:00:43.918Z,103673.89
2019-02-22T23:03:13.166Z,103661.42
2019-02-22T23:05:42.413Z,103669.87
2019-02-22T23:08:12.488Z,103666.31
2019-02-22T23:10:41.925Z,103669.89
2019-02-22T23:13:11.244Z,103681.06
2019-02-22T23:15:40.496Z,103673.94
2019-02-22T23:18:09.734Z,103677.03
2019-02-22T23:20:39.120Z,103678.84
2019-02-22T23:23:08.381Z,103673.94
2019-02-22T23:25:37.690Z,103678.36
2019-02-22T23:28:06.947Z,103678.36
2019-02-22T23:30:36.338Z,103681.96
2019-02-22T23:33:05.658Z,103679.70
2019-02-22T23:35:34.888Z,103677.04
2019-02-22T23:38:04.456Z,103677.04
2019-02-22T23:40:33.759Z,103671.68
2019-02-22T23:43:03.007Z,103667.68
2019-02-22T23:45:32.283Z,103662.32
2019-02-22T23:48:01.566Z,103662.32
2019-02-22T23:50:30.818Z,103666.35
2019-02-22T23:53:00.128Z,103665.91
2019-02-22T23:55:29.374Z,103669.89
2019-02-22T23:57:58.594Z,103676.12
